Araucaria, Brazil
Current Conditions -  °F | °C
As of 4:00 AM on Monday 26 Jan 2015 (Local Time) from SBCT Reporting Station
Scattered Clouds Scattered Clouds  
Wind Chill: 64°   Ceiling: Unl
Heat Index: 64°   Visibility: 6mi
Dew Point: 61°   Wind: 6mph
Humidity: 88%   Direction: 350°N
Pressure: 30.03"   Gusts: NA
Location:  25.58°S, 49.4°W
Report Text: SBCT 260600Z 35005KT 9999 FEW008 SCT100 18/16 Q1017
Loading
Personal Weather Stations






























Interactive Weather Map New forecast layout! Learn more

10-Day Weather Forecast

Advertisements
Track Severe Weather on mobile